sensor_id;sensor_type;location;lat;lon;timestamp;P1;durP1;ratioP1;P2;durP2;ratioP2
65599;SDS011;52272;-29.642;-50.764;2022-07-29T00:01:44;2.33;;;1.65;;
65599;SDS011;52272;-29.642;-50.764;2022-07-29T00:04:15;1.70;;;1.50;;
65599;SDS011;52272;-29.642;-50.764;2022-07-29T00:06:46;2.50;;;1.90;;
65599;SDS011;52272;-29.642;-50.764;2022-07-29T00:09:16;3.63;;;2.33;;
65599;SDS011;52272;-29.642;-50.764;2022-07-29T00:14:16;4.03;;;3.00;;
65599;SDS011;52272;-29.642;-50.764;2022-07-29T00:16:47;4.22;;;2.83;;
65599;SDS011;52272;-29.642;-50.764;2022-07-29T00:19:18;4.25;;;2.95;;
65599;SDS011;52272;-29.642;-50.764;2022-07-29T00:21:47;3.83;;;2.58;;
65599;SDS011;52272;-29.642;-50.764;2022-07-29T00:24:18;4.78;;;2.63;;
65599;SDS011;52272;-29.642;-50.764;2022-07-29T00:26:48;4.90;;;2.90;;
65599;SDS011;52272;-29.642;-50.764;2022-07-29T00:29:18;4.32;;;2.60;;
65599;SDS011;52272;-29.642;-50.764;2022-07-29T00:32:04;2.85;;;1.70;;
65599;SDS011;52272;-29.642;-50.764;2022-07-29T00:34:34;3.92;;;1.95;;
65599;SDS011;52272;-29.642;-50.764;2022-07-29T00:37:23;2.30;;;1.85;;
65599;SDS011;52272;-29.642;-50.764;2022-07-29T00:39:54;1.65;;;1.55;;
65599;SDS011;52272;-29.642;-50.764;2022-07-29T00:42:24;1.88;;;1.60;;
65599;SDS011;52272;-29.642;-50.764;2022-07-29T00:44:55;1.52;;;1.30;;
65599;SDS011;52272;-29.642;-50.764;2022-07-29T00:47:24;4.90;;;2.30;;
65599;SDS011;52272;-29.642;-50.764;2022-07-29T00:49:58;3.88;;;1.52;;
65599;SDS011;52272;-29.642;-50.764;2022-07-29T00:52:28;2.00;;;1.60;;
65599;SDS011;52272;-29.642;-50.764;2022-07-29T00:55:02;3.03;;;1.50;;
65599;SDS011;52272;-29.642;-50.764;2022-07-29T00:57:35;2.17;;;1.30;;
65599;SDS011;52272;-29.642;-50.764;2022-07-29T01:00:08;4.38;;;1.90;;
65599;SDS011;52272;-29.642;-50.764;2022-07-29T01:02:40;2.45;;;1.30;;
65599;SDS011;52272;-29.642;-50.764;2022-07-29T01:05:11;2.10;;;1.55;;
65599;SDS011;52272;-29.642;-50.764;2022-07-29T01:07:41;1.30;;;1.02;;
65599;SDS011;52272;-29.642;-50.764;2022-07-29T01:10:13;2.42;;;1.50;;
65599;SDS011;52272;-29.642;-50.764;2022-07-29T01:12:46;3.70;;;1.83;;
65599;SDS011;52272;-29.642;-50.764;2022-07-29T01:15:18;3.47;;;1.75;;
65599;SDS011;52272;-29.642;-50.764;2022-07-29T01:17:51;2.40;;;1.75;;
65599;SDS011;52272;-29.642;-50.764;2022-07-29T01:21:37;2.45;;;1.90;;
65599;SDS011;52272;-29.642;-50.764;2022-07-29T01:23:58;3.40;;;1.80;;
65599;SDS011;52272;-29.642;-50.764;2022-07-29T01:26:41;2.90;;;2.08;;
65599;SDS011;52272;-29.642;-50.764;2022-07-29T01:29:24;2.78;;;2.10;;
65599;SDS011;52272;-29.642;-50.764;2022-07-29T01:32:09;3.35;;;2.17;;
65599;SDS011;52272;-29.642;-50.764;2022-07-29T01:34:58;2.80;;;1.98;;
65599;SDS011;52272;-29.642;-50.764;2022-07-29T01:38:20;6.50;;;2.22;;
65599;SDS011;52272;-29.642;-50.764;2022-07-29T01:40:51;2.58;;;2.20;;
65599;SDS011;52272;-29.642;-50.764;2022-07-29T01:43:27;3.30;;;2.10;;
65599;SDS011;52272;-29.642;-50.764;2022-07-29T01:46:07;1.27;;;0.90;;
65599;SDS011;52272;-29.642;-50.764;2022-07-29T01:48:45;0.50;;;0.50;;
65599;SDS011;52272;-29.642;-50.764;2022-07-29T01:51:29;0.20;;;0.20;;
65599;SDS011;52272;-29.642;-50.764;2022-07-29T01:57:01;1.88;;;0.50;;
65599;SDS011;52272;-29.642;-50.764;2022-07-29T01:59:37;2.95;;;0.70;;
65599;SDS011;52272;-29.642;-50.764;2022-07-29T02:02:09;2.25;;;0.43;;
65599;SDS011;52272;-29.642;-50.764;2022-07-29T02:04:40;0.35;;;0.30;;
65599;SDS011;52272;-29.642;-50.764;2022-07-29T02:07:18;2.38;;;0.70;;
65599;SDS011;52272;-29.642;-50.764;2022-07-29T02:09:51;1.25;;;0.50;;
65599;SDS011;52272;-29.642;-50.764;2022-07-29T02:12:22;1.27;;;0.93;;
65599;SDS011;52272;-29.642;-50.764;2022-07-29T02:14:55;1.00;;;0.90;;
65599;SDS011;52272;-29.642;-50.764;2022-07-29T02:17:29;1.00;;;0.90;;
65599;SDS011;52272;-29.642;-50.764;2022-07-29T02:20:07;1.25;;;1.15;;
65599;SDS011;52272;-29.642;-50.764;2022-07-29T02:22:39;1.40;;;1.00;;
65599;SDS011;52272;-29.642;-50.764;2022-07-29T02:25:11;1.35;;;0.80;;
65599;SDS011;52272;-29.642;-50.764;2022-07-29T02:27:44;1.30;;;0.40;;
65599;SDS011;52272;-29.642;-50.764;2022-07-29T02:30:16;0.65;;;0.38;;
65599;SDS011;52272;-29.642;-50.764;2022-07-29T02:32:49;1.30;;;0.43;;
65599;SDS011;52272;-29.642;-50.764;2022-07-29T02:35:21;0.82;;;0.40;;
65599;SDS011;52272;-29.642;-50.764;2022-07-29T02:37:52;0.45;;;0.30;;
65599;SDS011;52272;-29.642;-50.764;2022-07-29T02:40:41;0.10;;;0.10;;
65599;SDS011;52272;-29.642;-50.764;2022-07-29T02:43:13;0.25;;;0.25;;
65599;SDS011;52272;-29.642;-50.764;2022-07-29T02:45:44;1.30;;;0.20;;
65599;SDS011;52272;-29.642;-50.764;2022-07-29T02:48:19;1.50;;;0.38;;
65599;SDS011;52272;-29.642;-50.764;2022-07-29T02:50:58;0.50;;;0.50;;
65599;SDS011;52272;-29.642;-50.764;2022-07-29T02:53:40;0.10;;;0.10;;
65599;SDS011;52272;-29.642;-50.764;2022-07-29T02:56:13;0.52;;;0.20;;
65599;SDS011;52272;-29.642;-50.764;2022-07-29T02:58:57;1.88;;;0.30;;
65599;SDS011;52272;-29.642;-50.764;2022-07-29T03:01:30;1.00;;;0.30;;
65599;SDS011;52272;-29.642;-50.764;2022-07-29T03:04:03;0.20;;;0.13;;
65599;SDS011;52272;-29.642;-50.764;2022-07-29T03:06:34;0.22;;;0.22;;
65599;SDS011;52272;-29.642;-50.764;2022-07-29T03:09:06;0.40;;;0.28;;
65599;SDS011;52272;-29.642;-50.764;2022-07-29T03:11:40;1.10;;;0.45;;
65599;SDS011;52272;-29.642;-50.764;2022-07-29T03:14:18;0.17;;;0.17;;
65599;SDS011;52272;-29.642;-50.764;2022-07-29T03:16:51;1.25;;;0.40;;
65599;SDS011;52272;-29.642;-50.764;2022-07-29T03:19:22;0.40;;;0.40;;
65599;SDS011;52272;-29.642;-50.764;2022-07-29T03:24:35;1.33;;;0.50;;
65599;SDS011;52272;-29.642;-50.764;2022-07-29T03:27:06;0.70;;;0.30;;
65599;SDS011;52272;-29.642;-50.764;2022-07-29T03:29:36;0.85;;;0.35;;
65599;SDS011;52272;-29.642;-50.764;2022-07-29T03:32:10;0.52;;;0.52;;
65599;SDS011;52272;-29.642;-50.764;2022-07-29T03:34:41;3.85;;;0.70;;
65599;SDS011;52272;-29.642;-50.764;2022-07-29T03:37:11;0.43;;;0.40;;
65599;SDS011;52272;-29.642;-50.764;2022-07-29T03:42:13;0.50;;;0.50;;
65599;SDS011;52272;-29.642;-50.764;2022-07-29T03:44:46;1.80;;;1.00;;
65599;SDS011;52272;-29.642;-50.764;2022-07-29T03:47:18;1.20;;;1.10;;
65599;SDS011;52272;-29.642;-50.764;2022-07-29T03:50:13;2.20;;;1.35;;
65599;SDS011;52272;-29.642;-50.764;2022-07-29T03:52:45;3.53;;;1.20;;
65599;SDS011;52272;-29.642;-50.764;2022-07-29T03:55:16;1.73;;;1.60;;
65599;SDS011;52272;-29.642;-50.764;2022-07-29T03:57:47;2.38;;;1.85;;
65599;SDS011;52272;-29.642;-50.764;2022-07-29T04:00:19;2.83;;;1.73;;
65599;SDS011;52272;-29.642;-50.764;2022-07-29T04:02:49;3.28;;;1.20;;
65599;SDS011;52272;-29.642;-50.764;2022-07-29T04:05:20;1.15;;;0.77;;
65599;SDS011;52272;-29.642;-50.764;2022-07-29T04:07:50;1.27;;;1.00;;
65599;SDS011;52272;-29.642;-50.764;2022-07-29T04:10:20;2.05;;;0.85;;
65599;SDS011;52272;-29.642;-50.764;2022-07-29T04:12:59;0.95;;;0.65;;
65599;SDS011;52272;-29.642;-50.764;2022-07-29T04:15:29;0.95;;;0.40;;
65599;SDS011;52272;-29.642;-50.764;2022-07-29T04:18:00;0.77;;;0.63;;
65599;SDS011;52272;-29.642;-50.764;2022-07-29T04:20:29;1.08;;;0.50;;
65599;SDS011;52272;-29.642;-50.764;2022-07-29T04:23:00;5.45;;;0.60;;
65599;SDS011;52272;-29.642;-50.764;2022-07-29T04:25:31;1.73;;;0.77;;
65599;SDS011;52272;-29.642;-50.764;2022-07-29T04:28:01;2.88;;;0.82;;
65599;SDS011;52272;-29.642;-50.764;2022-07-29T04:30:32;2.50;;;0.55;;
65599;SDS011;52272;-29.642;-50.764;2022-07-29T04:33:05;0.50;;;0.40;;
65599;SDS011;52272;-29.642;-50.764;2022-07-29T04:35:36;0.60;;;0.43;;
65599;SDS011;52272;-29.642;-50.764;2022-07-29T04:38:17;1.65;;;0.40;;
65599;SDS011;52272;-29.642;-50.764;2022-07-29T04:40:47;0.57;;;0.45;;
65599;SDS011;52272;-29.642;-50.764;2022-07-29T04:43:18;1.33;;;0.52;;
65599;SDS011;52272;-29.642;-50.764;2022-07-29T04:45:50;0.68;;;0.68;;
65599;SDS011;52272;-29.642;-50.764;2022-07-29T04:48:20;0.60;;;0.60;;
65599;SDS011;52272;-29.642;-50.764;2022-07-29T04:50:55;3.33;;;0.80;;
65599;SDS011;52272;-29.642;-50.764;2022-07-29T04:53:26;1.17;;;0.60;;
65599;SDS011;52272;-29.642;-50.764;2022-07-29T04:55:57;1.75;;;0.85;;
65599;SDS011;52272;-29.642;-50.764;2022-07-29T04:58:28;0.68;;;0.68;;
65599;SDS011;52272;-29.642;-50.764;2022-07-29T05:00:58;1.70;;;0.80;;
65599;SDS011;52272;-29.642;-50.764;2022-07-29T05:03:29;1.05;;;0.63;;
65599;SDS011;52272;-29.642;-50.764;2022-07-29T05:06:00;0.63;;;0.63;;
65599;SDS011;52272;-29.642;-50.764;2022-07-29T05:11:03;1.38;;;0.80;;
65599;SDS011;52272;-29.642;-50.764;2022-07-29T05:13:40;1.60;;;0.90;;
65599;SDS011;52272;-29.642;-50.764;2022-07-29T05:16:13;4.32;;;1.05;;
65599;SDS011;52272;-29.642;-50.764;2022-07-29T05:18:47;1.25;;;0.85;;
65599;SDS011;52272;-29.642;-50.764;2022-07-29T05:21:18;4.28;;;0.70;;
65599;SDS011;52272;-29.642;-50.764;2022-07-29T05:26:18;5.60;;;0.80;;
65599;SDS011;52272;-29.642;-50.764;2022-07-29T05:28:49;2.33;;;1.00;;
65599;SDS011;52272;-29.642;-50.764;2022-07-29T05:31:19;0.90;;;0.90;;
65599;SDS011;52272;-29.642;-50.764;2022-07-29T05:33:50;1.67;;;0.70;;
65599;SDS011;52272;-29.642;-50.764;2022-07-29T05:38:50;1.40;;;0.98;;
65599;SDS011;52272;-29.642;-50.764;2022-07-29T05:41:21;1.10;;;1.00;;
65599;SDS011;52272;-29.642;-50.764;2022-07-29T05:43:51;2.08;;;1.15;;
65599;SDS011;52272;-29.642;-50.764;2022-07-29T05:46:22;0.90;;;0.90;;
65599;SDS011;52272;-29.642;-50.764;2022-07-29T05:48:52;2.28;;;0.85;;
65599;SDS011;52272;-29.642;-50.764;2022-07-29T05:51:23;1.05;;;0.80;;
65599;SDS011;52272;-29.642;-50.764;2022-07-29T05:53:53;1.38;;;0.80;;
65599;SDS011;52272;-29.642;-50.764;2022-07-29T05:56:24;0.70;;;0.70;;
65599;SDS011;52272;-29.642;-50.764;2022-07-29T06:01:24;1.55;;;1.10;;
65599;SDS011;52272;-29.642;-50.764;2022-07-29T06:03:55;1.88;;;1.15;;
65599;SDS011;52272;-29.642;-50.764;2022-07-29T06:08:55;1.15;;;1.10;;
65599;SDS011;52272;-29.642;-50.764;2022-07-29T06:11:26;1.10;;;1.00;;
65599;SDS011;52272;-29.642;-50.764;2022-07-29T06:13:56;1.13;;;1.10;;
65599;SDS011;52272;-29.642;-50.764;2022-07-29T06:18:57;3.17;;;1.33;;
65599;SDS011;52272;-29.642;-50.764;2022-07-29T06:23:57;1.60;;;1.17;;
65599;SDS011;52272;-29.642;-50.764;2022-07-29T06:29:03;1.25;;;0.90;;
65599;SDS011;52272;-29.642;-50.764;2022-07-29T06:34:03;0.80;;;0.80;;
65599;SDS011;52272;-29.642;-50.764;2022-07-29T06:36:35;1.08;;;0.90;;
65599;SDS011;52272;-29.642;-50.764;2022-07-29T06:39:08;1.10;;;0.98;;
65599;SDS011;52272;-29.642;-50.764;2022-07-29T06:41:39;1.20;;;1.10;;
65599;SDS011;52272;-29.642;-50.764;2022-07-29T06:44:13;1.75;;;0.57;;
65599;SDS011;52272;-29.642;-50.764;2022-07-29T06:46:44;1.17;;;0.82;;
65599;SDS011;52272;-29.642;-50.764;2022-07-29T06:49:18;3.53;;;0.95;;
65599;SDS011;52272;-29.642;-50.764;2022-07-29T06:54:21;1.38;;;0.73;;
65599;SDS011;52272;-29.642;-50.764;2022-07-29T06:56:51;1.98;;;1.00;;
65599;SDS011;52272;-29.642;-50.764;2022-07-29T06:59:22;4.70;;;1.60;;
65599;SDS011;52272;-29.642;-50.764;2022-07-29T07:02:02;1.15;;;0.98;;
65599;SDS011;52272;-29.642;-50.764;2022-07-29T07:04:33;2.00;;;1.30;;
65599;SDS011;52272;-29.642;-50.764;2022-07-29T07:09:33;1.05;;;1.00;;
65599;SDS011;52272;-29.642;-50.764;2022-07-29T07:12:08;2.50;;;0.98;;
65599;SDS011;52272;-29.642;-50.764;2022-07-29T07:14:40;0.93;;;0.90;;
65599;SDS011;52272;-29.642;-50.764;2022-07-29T07:19:40;1.92;;;0.90;;
65599;SDS011;52272;-29.642;-50.764;2022-07-29T07:24:40;3.90;;;1.30;;
65599;SDS011;52272;-29.642;-50.764;2022-07-29T07:27:11;2.17;;;1.05;;
65599;SDS011;52272;-29.642;-50.764;2022-07-29T07:29:41;1.10;;;1.00;;
65599;SDS011;52272;-29.642;-50.764;2022-07-29T07:32:12;1.35;;;0.93;;
65599;SDS011;52272;-29.642;-50.764;2022-07-29T07:34:43;1.25;;;1.15;;
65599;SDS011;52272;-29.642;-50.764;2022-07-29T07:37:14;1.10;;;1.10;;
65599;SDS011;52272;-29.642;-50.764;2022-07-29T07:39:44;4.97;;;1.20;;
65599;SDS011;52272;-29.642;-50.764;2022-07-29T07:42:15;1.35;;;1.25;;
65599;SDS011;52272;-29.642;-50.764;2022-07-29T07:44:45;1.42;;;1.30;;
65599;SDS011;52272;-29.642;-50.764;2022-07-29T07:47:37;1.08;;;1.05;;
65599;SDS011;52272;-29.642;-50.764;2022-07-29T07:50:09;2.33;;;1.23;;
65599;SDS011;52272;-29.642;-50.764;2022-07-29T07:52:47;1.67;;;1.30;;
65599;SDS011;52272;-29.642;-50.764;2022-07-29T07:55:24;4.80;;;1.20;;
65599;SDS011;52272;-29.642;-50.764;2022-07-29T07:58:19;1.83;;;1.50;;
65599;SDS011;52272;-29.642;-50.764;2022-07-29T08:00:49;1.42;;;1.30;;
65599;SDS011;52272;-29.642;-50.764;2022-07-29T08:05:49;1.60;;;1.50;;
65599;SDS011;52272;-29.642;-50.764;2022-07-29T08:08:21;3.70;;;1.48;;
65599;SDS011;52272;-29.642;-50.764;2022-07-29T08:10:53;1.77;;;1.42;;
65599;SDS011;52272;-29.642;-50.764;2022-07-29T08:13:36;3.33;;;1.42;;
65599;SDS011;52272;-29.642;-50.764;2022-07-29T08:16:07;1.52;;;1.25;;
65599;SDS011;52272;-29.642;-50.764;2022-07-29T08:18:42;1.42;;;1.33;;
65599;SDS011;52272;-29.642;-50.764;2022-07-29T08:21:14;3.83;;;1.23;;
65599;SDS011;52272;-29.642;-50.764;2022-07-29T08:23:47;1.40;;;1.30;;
65599;SDS011;52272;-29.642;-50.764;2022-07-29T08:26:41;1.42;;;1.30;;
65599;SDS011;52272;-29.642;-50.764;2022-07-29T08:29:12;1.45;;;0.90;;
65599;SDS011;52272;-29.642;-50.764;2022-07-29T08:31:46;1.25;;;1.10;;
65599;SDS011;52272;-29.642;-50.764;2022-07-29T08:34:17;1.58;;;1.48;;
65599;SDS011;52272;-29.642;-50.764;2022-07-29T08:36:55;2.42;;;1.23;;
65599;SDS011;52272;-29.642;-50.764;2022-07-29T08:39:26;3.72;;;1.60;;
65599;SDS011;52272;-29.642;-50.764;2022-07-29T08:41:57;1.63;;;1.50;;
65599;SDS011;52272;-29.642;-50.764;2022-07-29T08:44:28;1.58;;;1.30;;
65599;SDS011;52272;-29.642;-50.764;2022-07-29T08:46:58;1.88;;;1.20;;
65599;SDS011;52272;-29.642;-50.764;2022-07-29T08:51:59;1.30;;;1.20;;
65599;SDS011;52272;-29.642;-50.764;2022-07-29T08:54:31;1.90;;;1.20;;
65599;SDS011;52272;-29.642;-50.764;2022-07-29T08:57:01;1.65;;;1.13;;
65599;SDS011;52272;-29.642;-50.764;2022-07-29T08:59:32;1.60;;;1.40;;
65599;SDS011;52272;-29.642;-50.764;2022-07-29T09:02:05;1.60;;;1.50;;
65599;SDS011;52272;-29.642;-50.764;2022-07-29T09:04:48;2.67;;;1.83;;
65599;SDS011;52272;-29.642;-50.764;2022-07-29T09:07:18;1.83;;;1.60;;
65599;SDS011;52272;-29.642;-50.764;2022-07-29T09:12:22;1.98;;;1.30;;
65599;SDS011;52272;-29.642;-50.764;2022-07-29T09:14:56;3.70;;;1.60;;
65599;SDS011;52272;-29.642;-50.764;2022-07-29T09:17:42;1.98;;;1.48;;
65599;SDS011;52272;-29.642;-50.764;2022-07-29T09:20:15;1.48;;;1.38;;
65599;SDS011;52272;-29.642;-50.764;2022-07-29T09:22:47;4.07;;;1.60;;
65599;SDS011;52272;-29.642;-50.764;2022-07-29T09:25:34;4.75;;;1.60;;
65599;SDS011;52272;-29.642;-50.764;2022-07-29T09:28:13;1.83;;;1.63;;
65599;SDS011;52272;-29.642;-50.764;2022-07-29T09:30:53;1.90;;;1.35;;
65599;SDS011;52272;-29.642;-50.764;2022-07-29T09:33:32;5.63;;;1.65;;
65599;SDS011;52272;-29.642;-50.764;2022-07-29T09:36:09;1.92;;;1.40;;
65599;SDS011;52272;-29.642;-50.764;2022-07-29T09:41:09;3.10;;;1.70;;
65599;SDS011;52272;-29.642;-50.764;2022-07-29T09:43:40;2.45;;;1.20;;
65599;SDS011;52272;-29.642;-50.764;2022-07-29T09:46:22;1.55;;;1.45;;
65599;SDS011;52272;-29.642;-50.764;2022-07-29T09:49:07;1.80;;;1.55;;
65599;SDS011;52272;-29.642;-50.764;2022-07-29T09:51:41;2.60;;;1.60;;
65599;SDS011;52272;-29.642;-50.764;2022-07-29T09:54:25;1.95;;;1.55;;
65599;SDS011;52272;-29.642;-50.764;2022-07-29T09:56:56;1.77;;;1.30;;
65599;SDS011;52272;-29.642;-50.764;2022-07-29T09:59:27;4.80;;;1.50;;
65599;SDS011;52272;-29.642;-50.764;2022-07-29T10:01:57;2.03;;;1.33;;
65599;SDS011;52272;-29.642;-50.764;2022-07-29T10:04:40;2.92;;;1.88;;
65599;SDS011;52272;-29.642;-50.764;2022-07-29T10:07:11;3.38;;;1.88;;
65599;SDS011;52272;-29.642;-50.764;2022-07-29T10:12:22;3.03;;;2.13;;
65599;SDS011;52272;-29.642;-50.764;2022-07-29T10:14:53;3.38;;;2.08;;
65599;SDS011;52272;-29.642;-50.764;2022-07-29T10:17:24;1.90;;;1.70;;
65599;SDS011;52272;-29.642;-50.764;2022-07-29T10:19:54;5.15;;;1.60;;
65599;SDS011;52272;-29.642;-50.764;2022-07-29T10:22:25;2.33;;;1.70;;
65599;SDS011;52272;-29.642;-50.764;2022-07-29T10:25:16;2.30;;;1.48;;
65599;SDS011;52272;-29.642;-50.764;2022-07-29T10:27:48;1.88;;;1.48;;
65599;SDS011;52272;-29.642;-50.764;2022-07-29T10:30:24;2.67;;;1.60;;
65599;SDS011;52272;-29.642;-50.764;2022-07-29T10:38:45;2.60;;;1.83;;
65599;SDS011;52272;-29.642;-50.764;2022-07-29T10:44:17;3.38;;;1.55;;
65599;SDS011;52272;-29.642;-50.764;2022-07-29T10:46:51;6.25;;;1.80;;
65599;SDS011;52272;-29.642;-50.764;2022-07-29T10:49:23;2.88;;;1.83;;
65599;SDS011;52272;-29.642;-50.764;2022-07-29T10:52:09;4.22;;;1.70;;
65599;SDS011;52272;-29.642;-50.764;2022-07-29T10:54:41;2.58;;;1.80;;
65599;SDS011;52272;-29.642;-50.764;2022-07-29T10:57:33;5.28;;;1.90;;
65599;SDS011;52272;-29.642;-50.764;2022-07-29T11:00:28;2.38;;;1.70;;
65599;SDS011;52272;-29.642;-50.764;2022-07-29T11:02:59;2.85;;;1.77;;
65599;SDS011;52272;-29.642;-50.764;2022-07-29T11:05:56;3.15;;;2.03;;
65599;SDS011;52272;-29.642;-50.764;2022-07-29T11:08:27;5.93;;;1.80;;
65599;SDS011;52272;-29.642;-50.764;2022-07-29T11:13:56;2.40;;;1.88;;
65599;SDS011;52272;-29.642;-50.764;2022-07-29T11:19:19;3.13;;;1.70;;
65599;SDS011;52272;-29.642;-50.764;2022-07-29T11:21:58;2.78;;;2.15;;
65599;SDS011;52272;-29.642;-50.764;2022-07-29T11:27:13;4.03;;;2.08;;
65599;SDS011;52272;-29.642;-50.764;2022-07-29T11:29:56;2.92;;;2.10;;
65599;SDS011;52272;-29.642;-50.764;2022-07-29T11:32:40;1.95;;;1.77;;
65599;SDS011;52272;-29.642;-50.764;2022-07-29T11:35:22;3.20;;;1.50;;
65599;SDS011;52272;-29.642;-50.764;2022-07-29T11:43:49;3.13;;;1.95;;
65599;SDS011;52272;-29.642;-50.764;2022-07-29T11:49:40;3.95;;;1.83;;
65599;SDS011;52272;-29.642;-50.764;2022-07-29T11:52:15;5.30;;;2.00;;
65599;SDS011;52272;-29.642;-50.764;2022-07-29T11:54:48;2.53;;;1.95;;
65599;SDS011;52272;-29.642;-50.764;2022-07-29T11:57:27;2.88;;;2.30;;
65599;SDS011;52272;-29.642;-50.764;2022-07-29T12:00:04;3.92;;;1.60;;
65599;SDS011;52272;-29.642;-50.764;2022-07-29T12:02:45;3.05;;;1.75;;
65599;SDS011;52272;-29.642;-50.764;2022-07-29T12:05:16;2.75;;;1.45;;
65599;SDS011;52272;-29.642;-50.764;2022-07-29T12:08:04;2.75;;;1.75;;
65599;SDS011;52272;-29.642;-50.764;2022-07-29T12:10:42;2.42;;;1.95;;
65599;SDS011;52272;-29.642;-50.764;2022-07-29T12:13:16;3.72;;;1.77;;
65599;SDS011;52272;-29.642;-50.764;2022-07-29T12:15:53;2.00;;;1.50;;
65599;SDS011;52272;-29.642;-50.764;2022-07-29T12:20:57;4.05;;;2.50;;
65599;SDS011;52272;-29.642;-50.764;2022-07-29T12:23:31;3.03;;;1.55;;
65599;SDS011;52272;-29.642;-50.764;2022-07-29T12:26:05;4.18;;;1.50;;
65599;SDS011;52272;-29.642;-50.764;2022-07-29T12:28:49;3.65;;;1.60;;
65599;SDS011;52272;-29.642;-50.764;2022-07-29T12:31:21;1.85;;;1.42;;
65599;SDS011;52272;-29.642;-50.764;2022-07-29T12:34:11;3.33;;;1.58;;
65599;SDS011;52272;-29.642;-50.764;2022-07-29T12:36:45;2.47;;;1.83;;
65599;SDS011;52272;-29.642;-50.764;2022-07-29T12:39:16;1.92;;;1.58;;
65599;SDS011;52272;-29.642;-50.764;2022-07-29T12:41:46;2.15;;;1.42;;
65599;SDS011;52272;-29.642;-50.764;2022-07-29T12:44:17;1.98;;;1.13;;
65599;SDS011;52272;-29.642;-50.764;2022-07-29T12:47:01;1.55;;;1.08;;
65599;SDS011;52272;-29.642;-50.764;2022-07-29T12:49:32;1.50;;;1.10;;
65599;SDS011;52272;-29.642;-50.764;2022-07-29T12:52:26;1.38;;;1.15;;
65599;SDS011;52272;-29.642;-50.764;2022-07-29T12:55:00;2.70;;;0.90;;
65599;SDS011;52272;-29.642;-50.764;2022-07-29T12:57:31;1.10;;;1.00;;
65599;SDS011;52272;-29.642;-50.764;2022-07-29T13:00:07;2.45;;;1.35;;
65599;SDS011;52272;-29.642;-50.764;2022-07-29T13:02:40;5.13;;;1.42;;
65599;SDS011;52272;-29.642;-50.764;2022-07-29T13:05:12;2.22;;;1.00;;
65599;SDS011;52272;-29.642;-50.764;2022-07-29T13:07:43;1.20;;;1.10;;
65599;SDS011;52272;-29.642;-50.764;2022-07-29T13:10:24;1.40;;;1.20;;
65599;SDS011;52272;-29.642;-50.764;2022-07-29T13:13:01;2.75;;;1.45;;
65599;SDS011;52272;-29.642;-50.764;2022-07-29T13:15:36;2.38;;;1.40;;
65599;SDS011;52272;-29.642;-50.764;2022-07-29T13:21:11;2.40;;;1.00;;
65599;SDS011;52272;-29.642;-50.764;2022-07-29T13:26:15;3.60;;;1.15;;
65599;SDS011;52272;-29.642;-50.764;2022-07-29T13:28:49;1.20;;;1.10;;
65599;SDS011;52272;-29.642;-50.764;2022-07-29T13:31:20;2.63;;;0.90;;
65599;SDS011;52272;-29.642;-50.764;2022-07-29T13:33:51;2.25;;;1.73;;
65599;SDS011;52272;-29.642;-50.764;2022-07-29T13:36:21;2.20;;;1.30;;
65599;SDS011;52272;-29.642;-50.764;2022-07-29T13:38:52;2.20;;;1.20;;
65599;SDS011;52272;-29.642;-50.764;2022-07-29T13:41:22;2.20;;;1.30;;
65599;SDS011;52272;-29.642;-50.764;2022-07-29T13:43:53;1.10;;;1.00;;
65599;SDS011;52272;-29.642;-50.764;2022-07-29T13:46:24;2.17;;;1.10;;
65599;SDS011;52272;-29.642;-50.764;2022-07-29T13:48:54;2.30;;;0.98;;
65599;SDS011;52272;-29.642;-50.764;2022-07-29T13:51:25;2.50;;;1.48;;
65599;SDS011;52272;-29.642;-50.764;2022-07-29T13:53:57;1.13;;;1.02;;
65599;SDS011;52272;-29.642;-50.764;2022-07-29T13:56:31;1.60;;;1.15;;
65599;SDS011;52272;-29.642;-50.764;2022-07-29T13:59:01;1.05;;;1.00;;
65599;SDS011;52272;-29.642;-50.764;2022-07-29T14:01:32;1.85;;;0.90;;
65599;SDS011;52272;-29.642;-50.764;2022-07-29T14:04:06;2.00;;;1.30;;
65599;SDS011;52272;-29.642;-50.764;2022-07-29T14:06:39;2.42;;;1.00;;
65599;SDS011;52272;-29.642;-50.764;2022-07-29T14:09:10;3.10;;;1.08;;
65599;SDS011;52272;-29.642;-50.764;2022-07-29T14:11:44;1.45;;;1.02;;
65599;SDS011;52272;-29.642;-50.764;2022-07-29T14:14:14;1.75;;;1.25;;
65599;SDS011;52272;-29.642;-50.764;2022-07-29T14:16:45;1.48;;;1.05;;
65599;SDS011;52272;-29.642;-50.764;2022-07-29T14:19:19;1.20;;;1.10;;
65599;SDS011;52272;-29.642;-50.764;2022-07-29T14:21:49;1.52;;;1.17;;
65599;SDS011;52272;-29.642;-50.764;2022-07-29T14:24:20;1.95;;;1.48;;
65599;SDS011;52272;-29.642;-50.764;2022-07-29T14:26:51;4.75;;;1.60;;
65599;SDS011;52272;-29.642;-50.764;2022-07-29T14:29:21;1.30;;;1.15;;
65599;SDS011;52272;-29.642;-50.764;2022-07-29T14:32:05;2.33;;;1.45;;
65599;SDS011;52272;-29.642;-50.764;2022-07-29T14:34:36;4.43;;;1.60;;
65599;SDS011;52272;-29.642;-50.764;2022-07-29T14:37:08;4.15;;;1.52;;
65599;SDS011;52272;-29.642;-50.764;2022-07-29T14:39:43;3.58;;;1.83;;
65599;SDS011;52272;-29.642;-50.764;2022-07-29T14:42:13;2.10;;;1.63;;
65599;SDS011;52272;-29.642;-50.764;2022-07-29T14:44:45;2.60;;;1.20;;
65599;SDS011;52272;-29.642;-50.764;2022-07-29T14:47:17;2.08;;;1.35;;
65599;SDS011;52272;-29.642;-50.764;2022-07-29T14:49:49;2.42;;;1.27;;
65599;SDS011;52272;-29.642;-50.764;2022-07-29T14:52:20;3.00;;;1.40;;
65599;SDS011;52272;-29.642;-50.764;2022-07-29T14:54:50;2.40;;;1.70;;
65599;SDS011;52272;-29.642;-50.764;2022-07-29T14:57:21;2.30;;;1.40;;
65599;SDS011;52272;-29.642;-50.764;2022-07-29T14:59:54;3.00;;;0.93;;
65599;SDS011;52272;-29.642;-50.764;2022-07-29T15:02:25;4.35;;;1.38;;
65599;SDS011;52272;-29.642;-50.764;2022-07-29T15:05:15;1.08;;;0.95;;
65599;SDS011;52272;-29.642;-50.764;2022-07-29T15:07:46;2.63;;;1.30;;
65599;SDS011;52272;-29.642;-50.764;2022-07-29T15:10:16;2.60;;;1.30;;
65599;SDS011;52272;-29.642;-50.764;2022-07-29T15:12:52;1.80;;;1.42;;
65599;SDS011;52272;-29.642;-50.764;2022-07-29T15:15:22;1.20;;;1.10;;
65599;SDS011;52272;-29.642;-50.764;2022-07-29T15:17:53;1.48;;;1.17;;
65599;SDS011;52272;-29.642;-50.764;2022-07-29T15:22:56;1.40;;;1.30;;
65599;SDS011;52272;-29.642;-50.764;2022-07-29T15:25:29;2.85;;;1.40;;
65599;SDS011;52272;-29.642;-50.764;2022-07-29T15:28:00;1.50;;;1.20;;
65599;SDS011;52272;-29.642;-50.764;2022-07-29T15:30:32;2.30;;;1.30;;
65599;SDS011;52272;-29.642;-50.764;2022-07-29T15:33:03;1.48;;;0.88;;
65599;SDS011;52272;-29.642;-50.764;2022-07-29T15:35:40;2.40;;;1.40;;
65599;SDS011;52272;-29.642;-50.764;2022-07-29T15:38:10;1.45;;;1.30;;
65599;SDS011;52272;-29.642;-50.764;2022-07-29T15:40:41;3.38;;;1.50;;
65599;SDS011;52272;-29.642;-50.764;2022-07-29T15:43:12;1.92;;;1.15;;
65599;SDS011;52272;-29.642;-50.764;2022-07-29T15:45:43;1.35;;;0.90;;
65599;SDS011;52272;-29.642;-50.764;2022-07-29T15:51:06;1.23;;;1.15;;
65599;SDS011;52272;-29.642;-50.764;2022-07-29T15:53:37;1.52;;;1.10;;
65599;SDS011;52272;-29.642;-50.764;2022-07-29T15:56:07;1.10;;;1.08;;
65599;SDS011;52272;-29.642;-50.764;2022-07-29T15:58:38;1.88;;;0.93;;
65599;SDS011;52272;-29.642;-50.764;2022-07-29T16:01:08;1.10;;;1.02;;
65599;SDS011;52272;-29.642;-50.764;2022-07-29T16:03:40;3.97;;;1.52;;
65599;SDS011;52272;-29.642;-50.764;2022-07-29T16:06:13;2.70;;;1.20;;
65599;SDS011;52272;-29.642;-50.764;2022-07-29T16:08:44;1.50;;;1.00;;
65599;SDS011;52272;-29.642;-50.764;2022-07-29T16:11:14;1.15;;;1.05;;
65599;SDS011;52272;-29.642;-50.764;2022-07-29T16:13:45;1.20;;;1.10;;
65599;SDS011;52272;-29.642;-50.764;2022-07-29T16:16:15;1.83;;;1.30;;
65599;SDS011;52272;-29.642;-50.764;2022-07-29T16:18:47;1.50;;;0.93;;
65599;SDS011;52272;-29.642;-50.764;2022-07-29T16:23:47;1.20;;;1.02;;
65599;SDS011;52272;-29.642;-50.764;2022-07-29T16:28:47;4.35;;;1.15;;